createdAt,value
2017-07-18T00:00:15.011Z,19.76
2017-07-18T00:01:16.842Z,19.78
2017-07-18T00:02:18.668Z,19.71
2017-07-18T00:03:20.538Z,19.65
2017-07-18T00:04:22.409Z,19.61
2017-07-18T00:05:24.300Z,19.61
2017-07-18T00:06:38.442Z,19.59
2017-07-18T00:07:40.311Z,19.56
2017-07-18T00:08:42.174Z,19.62
2017-07-18T00:09:44.042Z,19.61
2017-07-18T00:10:45.852Z,19.55
2017-07-18T00:11:47.653Z,19.55
2017-07-18T00:12:49.524Z,19.56
2017-07-18T00:13:51.394Z,19.54
2017-07-18T00:14:53.267Z,19.55
2017-07-18T00:16:07.434Z,19.59
2017-07-18T00:17:09.324Z,19.54
2017-07-18T00:18:11.197Z,19.48
2017-07-18T00:19:13.084Z,19.50
2017-07-18T00:20:14.899Z,19.40
2017-07-18T00:21:16.724Z,19.43
2017-07-18T00:22:18.613Z,19.47
2017-07-18T00:23:20.479Z,19.43
2017-07-18T00:24:22.354Z,19.41
2017-07-18T00:25:36.501Z,19.44
2017-07-18T00:26:38.393Z,19.39
2017-07-18T00:27:40.265Z,19.40
2017-07-18T00:28:42.158Z,19.41
2017-07-18T00:29:43.985Z,19.43
2017-07-18T00:30:45.791Z,19.31
2017-07-18T00:31:47.660Z,19.36
2017-07-18T00:32:49.549Z,19.36
2017-07-18T00:33:51.423Z,19.32
2017-07-18T00:35:05.585Z,19.36
2017-07-18T00:36:07.460Z,19.31
2017-07-18T00:37:09.326Z,19.25
2017-07-18T00:38:11.190Z,19.25
2017-07-18T00:39:12.994Z,19.28
2017-07-18T00:40:14.831Z,19.25
2017-07-18T00:41:16.718Z,19.26
2017-07-18T00:42:18.607Z,19.16
2017-07-18T00:43:20.473Z,19.13
2017-07-18T00:44:34.617Z,19.29
2017-07-18T00:45:36.511Z,19.13
2017-07-18T00:46:38.407Z,19.21
2017-07-18T00:47:40.296Z,19.25
2017-07-18T00:48:42.102Z,19.19
2017-07-18T00:49:43.905Z,19.21
2017-07-18T00:50:45.776Z,19.14
2017-07-18T00:51:47.665Z,19.21
2017-07-18T00:52:49.537Z,19.16
2017-07-18T00:54:03.677Z,19.13
2017-07-18T00:55:05.548Z,19.13
2017-07-18T00:56:07.443Z,19.21
2017-07-18T00:57:09.333Z,19.06
2017-07-18T00:58:11.165Z,19.08
2017-07-18T00:59:12.989Z,19.08
2017-07-18T01:00:14.876Z,19.07
2017-07-18T01:01:16.723Z,18.91
2017-07-18T01:02:18.596Z,18.94
2017-07-18T01:03:32.761Z,18.95
2017-07-18T01:04:34.658Z,18.91
2017-07-18T01:05:36.555Z,18.76
2017-07-18T01:06:38.424Z,18.72
2017-07-18T01:07:40.247Z,18.48
2017-07-18T01:08:42.058Z,18.50
2017-07-18T01:09:43.950Z,18.32
2017-07-18T01:10:45.824Z,18.29
2017-07-18T01:11:47.695Z,18.30
2017-07-18T01:13:01.818Z,18.33
2017-07-18T01:14:03.631Z,18.23
2017-07-18T01:15:05.522Z,18.15
2017-07-18T01:16:07.398Z,18.14
2017-07-18T01:17:09.295Z,18.15
2017-07-18T01:18:11.125Z,18.23
2017-07-18T01:19:12.952Z,18.32
2017-07-18T01:20:14.822Z,18.29
2017-07-18T01:21:16.692Z,18.29
2017-07-18T01:22:30.909Z,18.36
2017-07-18T01:23:32.777Z,18.32
2017-07-18T01:24:34.645Z,18.37
2017-07-18T01:25:36.513Z,18.42
2017-07-18T01:26:38.345Z,18.44
2017-07-18T01:27:40.146Z,18.45
2017-07-18T01:28:42.029Z,18.58
2017-07-18T01:29:43.922Z,18.45
2017-07-18T01:30:45.799Z,18.47
2017-07-18T01:31:59.946Z,18.52
2017-07-18T01:33:01.817Z,18.48
2017-07-18T01:34:03.689Z,18.44
2017-07-18T01:35:05.563Z,18.47
2017-07-18T01:36:07.390Z,18.48
2017-07-18T01:37:09.200Z,18.44
2017-07-18T01:38:11.102Z,18.55
2017-07-18T01:39:12.966Z,18.52
2017-07-18T01:40:14.837Z,18.47
2017-07-18T01:41:28.983Z,18.48
2017-07-18T01:42:30.879Z,18.60
2017-07-18T01:43:32.772Z,18.44
2017-07-18T01:44:34.669Z,18.58
2017-07-18T01:45:36.496Z,18.51
2017-07-18T01:46:38.303Z,18.45
2017-07-18T01:47:40.172Z,18.48
2017-07-18T01:48:42.048Z,18.60
2017-07-18T01:49:43.942Z,18.51
2017-07-18T01:50:58.089Z,18.51
2017-07-18T01:51:59.983Z,18.44
2017-07-18T01:53:01.857Z,18.48
2017-07-18T01:54:03.742Z,18.48
2017-07-18T01:55:05.525Z,18.44
2017-07-18T01:56:07.338Z,18.42
2017-07-18T01:57:09.233Z,18.45
2017-07-18T01:58:11.126Z,18.42
2017-07-18T01:59:13.006Z,18.42
2017-07-18T02:00:27.143Z,18.39
2017-07-18T02:01:29.018Z,18.35
2017-07-18T02:02:30.886Z,18.35
2017-07-18T02:03:32.754Z,18.35
2017-07-18T02:04:34.559Z,18.29
2017-07-18T02:05:36.367Z,18.33
2017-07-18T02:06:38.255Z,18.33
2017-07-18T02:07:40.130Z,18.33
2017-07-18T02:08:42.026Z,18.33
2017-07-18T02:09:56.166Z,18.33
2017-07-18T02:10:58.040Z,18.32
2017-07-18T02:11:59.909Z,18.30
2017-07-18T02:13:01.778Z,18.33
2017-07-18T02:14:03.588Z,18.23
2017-07-18T02:15:05.395Z,18.30
2017-07-18T02:16:07.290Z,18.23
2017-07-18T02:17:09.159Z,18.17
2017-07-18T02:18:11.053Z,18.15
2017-07-18T02:19:25.196Z,18.11
2017-07-18T02:20:27.067Z,18.14
2017-07-18T02:21:28.947Z,18.03
2017-07-18T02:22:30.828Z,18.05
2017-07-18T02:23:32.636Z,18.07
2017-07-18T02:24:34.444Z,18.03
2017-07-18T02:25:36.344Z,18.10
2017-07-18T02:26:38.234Z,18.11
2017-07-18T02:27:40.108Z,18.08
2017-07-18T02:28:54.251Z,18.12
2017-07-18T02:29:56.125Z,18.17
2017-07-18T02:30:57.990Z,18.11
2017-07-18T02:31:59.861Z,18.11
2017-07-18T02:33:01.671Z,18.18
2017-07-18T02:34:03.510Z,18.17
2017-07-18T02:35:05.387Z,18.12
2017-07-18T02:36:07.285Z,18.03
2017-07-18T02:37:09.156Z,18.03
2017-07-18T02:38:23.327Z,18.07
2017-07-18T02:39:25.224Z,18.05
2017-07-18T02:40:27.120Z,18.08
2017-07-18T02:41:28.990Z,18.00
2017-07-18T02:42:30.831Z,17.93
2017-07-18T02:43:32.626Z,17.96
2017-07-18T02:44:34.506Z,17.96
2017-07-18T02:45:36.402Z,17.97
2017-07-18T02:46:38.272Z,17.96
2017-07-18T02:47:52.415Z,17.87
2017-07-18T02:48:54.293Z,17.92
2017-07-18T02:49:56.186Z,17.86
2017-07-18T02:50:58.057Z,17.90
2017-07-18T02:51:59.864Z,17.89
2017-07-18T02:53:01.672Z,17.96
2017-07-18T02:54:03.566Z,17.95
2017-07-18T02:55:05.439Z,17.86
2017-07-18T02:56:07.346Z,17.86
2017-07-18T02:57:21.545Z,17.97
2017-07-18T02:58:23.426Z,17.92
2017-07-18T02:59:25.292Z,18.00
2017-07-18T03:00:27.190Z,18.03
2017-07-18T03:01:29.020Z,17.92
2017-07-18T03:02:30.834Z,17.93
2017-07-18T03:03:32.728Z,17.97
2017-07-18T03:04:34.607Z,17.89
2017-07-18T03:05:36.479Z,17.95
2017-07-18T03:06:50.632Z,17.96
2017-07-18T03:07:52.532Z,17.92
2017-07-18T03:08:54.436Z,17.89
2017-07-18T03:09:56.307Z,17.86
2017-07-18T03:10:58.143Z,17.86
2017-07-18T03:11:59.951Z,17.84
2017-07-18T03:13:01.826Z,17.82
2017-07-18T03:14:03.699Z,17.77
2017-07-18T03:15:05.597Z,17.79
2017-07-18T03:16:19.746Z,17.89
2017-07-18T03:17:21.648Z,17.90
2017-07-18T03:18:23.546Z,17.93
2017-07-18T03:19:25.441Z,17.93
2017-07-18T03:20:27.273Z,17.99
2017-07-18T03:21:29.087Z,17.99
2017-07-18T03:22:30.991Z,18.10
2017-07-18T03:23:32.881Z,18.14
2017-07-18T03:24:34.757Z,18.18
2017-07-18T03:25:48.927Z,18.27
2017-07-18T03:26:50.799Z,18.27
2017-07-18T03:27:52.692Z,18.37
2017-07-18T03:28:54.570Z,18.42
2017-07-18T03:29:56.404Z,18.41
2017-07-18T03:30:58.217Z,18.39
2017-07-18T03:32:00.108Z,18.48
2017-07-18T03:33:01.985Z,18.42
2017-07-18T03:34:03.883Z,18.50
2017-07-18T03:35:18.029Z,18.48
2017-07-18T03:36:19.907Z,18.65
2017-07-18T03:37:21.804Z,18.65
2017-07-18T03:38:23.675Z,18.80
2017-07-18T03:39:25.493Z,18.82
2017-07-18T03:40:27.328Z,19.04
2017-07-18T03:41:29.194Z,19.11
2017-07-18T03:42:31.073Z,19.26
2017-07-18T03:43:32.944Z,19.44
2017-07-18T03:44:47.100Z,19.58
2017-07-18T03:45:48.996Z,19.69
2017-07-18T03:46:50.898Z,19.88
2017-07-18T03:47:52.769Z,20.01
2017-07-18T03:48:54.579Z,20.20
2017-07-18T03:49:56.394Z,20.28
2017-07-18T03:50:58.295Z,20.38
2017-07-18T03:52:00.192Z,20.39
2017-07-18T03:53:02.090Z,20.39
2017-07-18T03:54:16.238Z,20.29
2017-07-18T03:55:18.135Z,20.24
2017-07-18T03:56:20.012Z,20.13
2017-07-18T03:57:21.880Z,20.06
2017-07-18T03:58:23.698Z,19.99
2017-07-18T03:59:25.532Z,19.87
2017-07-18T04:00:27.437Z,19.88
2017-07-18T04:01:29.327Z,19.92
2017-07-18T04:02:31.211Z,19.87
2017-07-18T04:03:45.381Z,19.81
2017-07-18T04:04:47.254Z,19.76
2017-07-18T04:05:49.127Z,19.78
2017-07-18T04:06:51.004Z,19.71
2017-07-18T04:07:52.845Z,19.78
2017-07-18T04:08:54.680Z,19.68
2017-07-18T04:09:56.580Z,19.74
2017-07-18T04:10:58.453Z,19.77
2017-07-18T04:12:00.324Z,19.76
2017-07-18T04:13:14.518Z,19.84
2017-07-18T04:14:16.394Z,19.78
2017-07-18T04:15:18.268Z,19.80
2017-07-18T04:16:20.144Z,19.81
2017-07-18T04:17:21.981Z,19.88
2017-07-18T04:18:23.799Z,19.92
2017-07-18T04:19:25.666Z,19.86
2017-07-18T04:20:27.549Z,19.87
2017-07-18T04:21:29.443Z,19.86
2017-07-18T04:22:43.601Z,19.92
2017-07-18T04:23:45.466Z,19.84
2017-07-18T04:24:47.351Z,19.95
2017-07-18T04:25:49.212Z,20.01
2017-07-18T04:26:51.032Z,19.92
2017-07-18T04:27:52.868Z,20.03
2017-07-18T04:28:54.775Z,19.98
2017-07-18T04:29:56.642Z,20.08
2017-07-18T04:30:58.539Z,20.05
2017-07-18T04:32:12.692Z,20.05
2017-07-18T04:33:14.594Z,20.01
2017-07-18T04:34:16.473Z,19.94
2017-07-18T04:35:18.370Z,19.95
2017-07-18T04:36:20.205Z,20.05
2017-07-18T04:37:22.017Z,19.98
2017-07-18T04:38:23.894Z,19.98
2017-07-18T04:39:25.764Z,20.05
2017-07-18T04:40:27.638Z,20.03
2017-07-18T04:41:41.791Z,20.06
2017-07-18T04:42:43.693Z,20.05
2017-07-18T04:43:45.594Z,20.06
2017-07-18T04:44:47.487Z,20.11
2017-07-18T04:45:49.305Z,20.01
2017-07-18T04:46:51.112Z,20.10
2017-07-18T04:47:52.991Z,20.11
2017-07-18T04:48:54.890Z,20.11
2017-07-18T04:49:56.771Z,20.13
2017-07-18T04:51:10.941Z,20.13
2017-07-18T04:52:12.817Z,20.10
2017-07-18T04:53:14.721Z,20.05
2017-07-18T04:54:16.617Z,20.11
2017-07-18T04:55:18.438Z,20.14
2017-07-18T04:56:20.271Z,20.10
2017-07-18T04:57:22.146Z,20.08
2017-07-18T04:58:24.043Z,20.11
2017-07-18T04:59:25.918Z,20.01
2017-07-18T05:00:40.076Z,19.88
2017-07-18T05:01:41.948Z,19.84
2017-07-18T05:02:43.830Z,19.91
2017-07-18T05:03:45.703Z,19.95
2017-07-18T05:04:47.521Z,19.87
2017-07-18T05:05:49.355Z,20.01
2017-07-18T05:06:51.233Z,20.01
2017-07-18T05:07:53.133Z,19.99
2017-07-18T05:08:55.010Z,20.05
2017-07-18T05:10:09.180Z,20.08
2017-07-18T05:11:11.060Z,20.10
2017-07-18T05:12:12.964Z,20.18
2017-07-18T05:13:14.860Z,20.11
2017-07-18T05:14:16.674Z,20.18
2017-07-18T05:15:18.484Z,20.21
2017-07-18T05:16:20.366Z,20.17
2017-07-18T05:17:22.266Z,20.18
2017-07-18T05:18:24.148Z,20.18
2017-07-18T05:19:38.299Z,20.16
2017-07-18T05:20:40.196Z,20.24
2017-07-18T05:21:42.076Z,20.24
2017-07-18T05:22:43.951Z,20.24
2017-07-18T05:23:45.767Z,20.21
2017-07-18T05:24:47.578Z,20.20
2017-07-18T05:25:49.459Z,20.16
2017-07-18T05:26:51.359Z,20.20
2017-07-18T05:27:53.256Z,20.23
2017-07-18T05:29:07.414Z,20.18
2017-07-18T05:30:09.312Z,20.20
2017-07-18T05:31:11.195Z,20.32
2017-07-18T05:32:13.098Z,20.29
2017-07-18T05:33:14.937Z,20.35
2017-07-18T05:34:16.773Z,20.48
2017-07-18T05:35:18.650Z,20.43
2017-07-18T05:36:20.524Z,20.47
2017-07-18T05:37:22.405Z,20.52
2017-07-18T05:38:36.587Z,20.55
2017-07-18T05:39:38.501Z,20.55
2017-07-18T05:40:40.402Z,20.54
2017-07-18T05:41:42.277Z,20.51
2017-07-18T05:42:44.120Z,20.59
2017-07-18T05:43:45.956Z,20.57
2017-07-18T05:44:47.861Z,20.55
2017-07-18T05:45:49.761Z,20.54
2017-07-18T05:46:51.635Z,20.73
2017-07-18T05:48:05.789Z,20.64
2017-07-18T05:49:07.695Z,20.59
2017-07-18T05:50:09.597Z,20.55
2017-07-18T05:51:11.477Z,20.54
2017-07-18T05:52:13.320Z,20.70
2017-07-18T05:53:15.152Z,20.74
2017-07-18T05:54:17.051Z,20.69
2017-07-18T05:55:18.932Z,20.85
2017-07-18T05:56:20.833Z,20.80
2017-07-18T05:57:34.991Z,20.85
2017-07-18T05:58:36.888Z,20.87
2017-07-18T05:59:38.764Z,20.87
2017-07-18T06:00:40.642Z,20.94
2017-07-18T06:01:42.461Z,21.01
2017-07-18T06:02:44.267Z,21.03
2017-07-18T06:03:46.145Z,21.04
2017-07-18T06:04:48.024Z,21.04
2017-07-18T06:05:49.901Z,21.01
2017-07-18T06:07:04.062Z,21.04
2017-07-18T06:08:05.936Z,21.07
2017-07-18T06:09:07.804Z,21.16
2017-07-18T06:10:09.683Z,21.10
2017-07-18T06:11:11.521Z,21.06
2017-07-18T06:12:13.336Z,21.03
2017-07-18T06:13:15.216Z,21.01
2017-07-18T06:14:17.111Z,20.88
2017-07-18T06:15:18.996Z,20.88
2017-07-18T06:16:33.170Z,20.72
2017-07-18T06:17:35.045Z,20.85
2017-07-18T06:18:36.924Z,20.77
2017-07-18T06:19:38.818Z,20.82
2017-07-18T06:20:40.644Z,20.79
2017-07-18T06:21:42.459Z,20.85
2017-07-18T06:22:44.327Z,20.87
2017-07-18T06:23:46.203Z,20.92
2017-07-18T06:24:48.109Z,20.97
2017-07-18T06:26:02.287Z,21.01
2017-07-18T06:27:04.168Z,21.04
2017-07-18T06:28:06.045Z,20.98
2017-07-18T06:29:07.923Z,21.14
2017-07-18T06:30:09.738Z,21.13
2017-07-18T06:31:11.560Z,21.24
2017-07-18T06:32:13.450Z,21.28
2017-07-18T06:33:15.332Z,21.37
2017-07-18T06:34:17.234Z,21.44
2017-07-18T06:35:31.384Z,21.50
2017-07-18T06:36:33.267Z,21.61
2017-07-18T06:37:35.143Z,21.77
2017-07-18T06:38:37.042Z,21.83
2017-07-18T06:39:38.860Z,21.96
2017-07-18T06:40:40.671Z,22.00
2017-07-18T06:41:42.557Z,22.12
2017-07-18T06:42:44.467Z,22.20
2017-07-18T06:43:46.337Z,22.36
2017-07-18T06:45:00.512Z,22.39
2017-07-18T06:46:02.389Z,22.55
2017-07-18T06:47:04.270Z,22.70
2017-07-18T06:48:06.177Z,22.77
2017-07-18T06:49:07.973Z,22.90
2017-07-18T06:50:09.793Z,22.98
2017-07-18T06:51:11.679Z,23.07
2017-07-18T06:52:13.562Z,23.17
2017-07-18T06:53:15.464Z,23.35
2017-07-18T06:54:29.644Z,23.47
2017-07-18T06:55:31.538Z,23.53
2017-07-18T06:56:33.423Z,23.69
2017-07-18T06:57:35.299Z,23.78
2017-07-18T06:58:37.141Z,23.79
2017-07-18T06:59:38.954Z,23.93
2017-07-18T07:00:40.856Z,23.98
2017-07-18T07:01:42.744Z,24.02
2017-07-18T07:02:44.624Z,24.12
2017-07-18T07:03:58.797Z,24.21
2017-07-18T07:05:00.680Z,24.27
2017-07-18T07:06:02.584Z,24.40
2017-07-18T07:07:04.481Z,24.47
2017-07-18T07:08:06.301Z,24.65
2017-07-18T07:09:08.114Z,24.73
2017-07-18T07:10:10.000Z,24.69
2017-07-18T07:11:11.905Z,24.77
2017-07-18T07:12:13.779Z,24.78
2017-07-18T07:13:27.938Z,24.77
2017-07-18T07:14:29.816Z,24.73
2017-07-18T07:15:31.696Z,24.78
2017-07-18T07:16:33.601Z,24.58
2017-07-18T07:17:35.415Z,24.45
2017-07-18T07:18:37.232Z,24.31
2017-07-18T07:19:39.112Z,24.24
2017-07-18T07:20:41.022Z,24.03
2017-07-18T07:21:42.920Z,24.02
2017-07-18T07:22:57.096Z,24.02
2017-07-18T07:23:59.000Z,23.85
2017-07-18T07:25:00.912Z,23.79
2017-07-18T07:26:02.779Z,23.60
2017-07-18T07:27:04.605Z,23.51
2017-07-18T07:28:06.415Z,23.50
2017-07-18T07:29:08.313Z,23.54
2017-07-18T07:30:10.197Z,23.35
2017-07-18T07:31:12.090Z,23.32
2017-07-18T07:32:26.245Z,23.05
2017-07-18T07:33:28.118Z,22.88
2017-07-18T07:34:30.007Z,22.92
2017-07-18T07:35:31.902Z,23.00
2017-07-18T07:36:33.721Z,23.05
2017-07-18T07:37:35.533Z,22.95
2017-07-18T07:38:37.435Z,22.92
2017-07-18T07:39:39.315Z,22.80
2017-07-18T07:40:41.217Z,22.70
2017-07-18T07:41:55.417Z,22.60
2017-07-18T07:42:57.294Z,22.60
2017-07-18T07:43:59.169Z,22.62
2017-07-18T07:45:01.070Z,22.65
2017-07-18T07:46:02.911Z,22.79
2017-07-18T07:47:04.720Z,22.83
2017-07-18T07:48:06.604Z,22.86
2017-07-18T07:49:08.482Z,22.76
2017-07-18T07:50:10.360Z,22.82
2017-07-18T07:51:24.532Z,22.85
2017-07-18T07:52:26.411Z,22.88
2017-07-18T07:53:28.310Z,23.04
2017-07-18T07:54:30.179Z,23.01
2017-07-18T07:55:31.998Z,23.13
2017-07-18T07:56:33.839Z,23.17
2017-07-18T07:57:35.738Z,23.22
2017-07-18T07:58:37.638Z,23.31
2017-07-18T07:59:39.544Z,23.15
2017-07-18T08:00:53.722Z,23.12
2017-07-18T08:01:55.619Z,23.13
2017-07-18T08:02:57.494Z,23.13
2017-07-18T08:03:59.368Z,23.13
2017-07-18T08:05:01.182Z,23.12
2017-07-18T08:06:03.001Z,23.04
2017-07-18T08:07:04.900Z,23.19
2017-07-18T08:08:06.804Z,23.35
2017-07-18T08:09:08.701Z,23.48
2017-07-18T08:10:22.855Z,23.47
2017-07-18T08:11:24.755Z,23.68
2017-07-18T08:12:26.628Z,23.76
2017-07-18T08:13:28.506Z,23.98
2017-07-18T08:14:30.345Z,24.20
2017-07-18T08:15:32.158Z,24.22
2017-07-18T08:16:33.983Z,24.47
2017-07-18T08:17:35.822Z,24.57
2017-07-18T08:18:37.635Z,24.45
2017-07-18T08:19:51.784Z,24.57
2017-07-18T08:20:53.666Z,24.68
2017-07-18T08:21:55.545Z,24.91
2017-07-18T08:22:57.442Z,25.20
2017-07-18T08:23:59.261Z,25.35
2017-07-18T08:25:01.097Z,25.55
2017-07-18T08:26:02.974Z,25.72
2017-07-18T08:27:04.858Z,25.92
2017-07-18T08:28:06.739Z,26.06
2017-07-18T08:29:20.919Z,26.25
2017-07-18T08:30:22.792Z,26.12
2017-07-18T08:31:24.666Z,26.02
2017-07-18T08:32:26.543Z,25.90
2017-07-18T08:33:28.363Z,25.91
2017-07-18T08:34:30.181Z,25.97
2017-07-18T08:35:32.059Z,25.92
2017-07-18T08:36:33.936Z,25.97
2017-07-18T08:37:35.820Z,26.07
2017-07-18T08:38:50.002Z,26.10
2017-07-18T08:39:51.913Z,26.06
2017-07-18T08:40:53.813Z,25.95
2017-07-18T08:41:55.689Z,25.94
2017-07-18T08:42:57.509Z,25.94
2017-07-18T08:43:59.328Z,25.83
2017-07-18T08:45:01.239Z,25.94
2017-07-18T08:46:03.107Z,26.07
2017-07-18T08:47:04.985Z,26.21
2017-07-18T08:48:19.168Z,26.15
2017-07-18T08:49:21.038Z,25.85
2017-07-18T08:50:22.920Z,25.72
2017-07-18T08:51:24.792Z,25.50
2017-07-18T08:52:26.610Z,25.28
2017-07-18T08:53:28.428Z,25.13
2017-07-18T08:54:30.331Z,25.13
2017-07-18T08:55:32.234Z,25.13
2017-07-18T08:56:34.135Z,24.91
2017-07-18T08:57:48.310Z,24.87
2017-07-18T08:58:50.191Z,24.87
2017-07-18T08:59:52.096Z,24.60
2017-07-18T09:00:53.996Z,24.65
2017-07-18T09:01:55.815Z,24.43
2017-07-18T09:02:57.651Z,24.42
2017-07-18T09:03:59.533Z,24.34
2017-07-18T09:05:01.433Z,24.25
2017-07-18T09:06:03.315Z,24.22
2017-07-18T09:07:17.491Z,24.05
2017-07-18T09:08:19.372Z,23.98
2017-07-18T09:09:21.274Z,24.00
2017-07-18T09:10:23.170Z,23.97
2017-07-18T09:11:25.013Z,24.03
2017-07-18T09:12:26.852Z,24.05
2017-07-18T09:13:28.728Z,24.25
2017-07-18T09:14:30.629Z,24.27
2017-07-18T09:15:32.543Z,24.09
2017-07-18T09:16:46.674Z,24.02
2017-07-18T09:17:48.550Z,24.08
2017-07-18T09:18:50.423Z,24.09
2017-07-18T09:19:52.299Z,23.97
2017-07-18T09:20:54.120Z,23.75
2017-07-18T09:21:55.954Z,23.75
2017-07-18T09:22:57.832Z,23.75
2017-07-18T09:23:59.710Z,23.78
2017-07-18T09:25:01.582Z,23.84
2017-07-18T09:26:15.738Z,23.84
2017-07-18T09:27:17.614Z,23.75
2017-07-18T09:28:19.486Z,23.61
2017-07-18T09:29:21.387Z,23.53
2017-07-18T09:30:23.222Z,23.60
2017-07-18T09:31:25.037Z,23.47
2017-07-18T09:32:26.936Z,23.46
2017-07-18T09:33:28.817Z,23.47
2017-07-18T09:34:30.721Z,23.47
2017-07-18T09:35:44.872Z,23.51
2017-07-18T09:36:46.773Z,23.55
2017-07-18T09:37:48.668Z,23.53
2017-07-18T09:38:50.548Z,23.58
2017-07-18T09:39:52.385Z,23.51
2017-07-18T09:40:54.203Z,23.58
2017-07-18T09:41:56.104Z,23.55
2017-07-18T09:42:58.004Z,23.58
2017-07-18T09:43:59.874Z,23.53
2017-07-18T09:45:14.027Z,23.47
2017-07-18T09:46:15.906Z,23.47
2017-07-18T09:47:17.807Z,23.47
2017-07-18T09:48:19.698Z,23.55
2017-07-18T09:49:21.519Z,23.55
2017-07-18T09:50:23.334Z,23.60
2017-07-18T09:51:25.236Z,23.76
2017-07-18T09:52:27.139Z,23.79
2017-07-18T09:53:29.036Z,23.73
2017-07-18T09:54:43.190Z,23.76
2017-07-18T09:55:45.062Z,23.76
2017-07-18T09:56:46.938Z,23.94
2017-07-18T09:57:48.821Z,23.95
2017-07-18T09:58:50.655Z,23.93
2017-07-18T09:59:52.469Z,23.93
2017-07-18T10:00:54.344Z,23.95
2017-07-18T10:01:56.220Z,24.03
2017-07-18T10:02:58.099Z,24.03
2017-07-18T10:04:12.273Z,24.03
2017-07-18T10:05:14.146Z,23.95
2017-07-18T10:06:16.025Z,24.02
2017-07-18T10:07:17.927Z,24.09
2017-07-18T10:08:19.762Z,24.18
2017-07-18T10:09:21.581Z,24.21
2017-07-18T10:10:23.480Z,24.25
2017-07-18T10:11:25.374Z,24.39
2017-07-18T10:12:27.255Z,24.47
2017-07-18T10:13:41.410Z,24.47
2017-07-18T10:14:43.312Z,24.50
2017-07-18T10:15:45.209Z,24.37
2017-07-18T10:16:47.086Z,24.31
2017-07-18T10:17:48.925Z,24.40
2017-07-18T10:18:50.738Z,24.40
2017-07-18T10:19:52.636Z,24.45
2017-07-18T10:20:54.489Z,24.40
2017-07-18T10:21:56.361Z,24.37
2017-07-18T10:23:10.526Z,24.20
2017-07-18T10:24:12.391Z,24.21
2017-07-18T10:25:14.266Z,24.13
2017-07-18T10:26:16.173Z,24.24
2017-07-18T10:27:17.983Z,24.35
2017-07-18T10:28:19.820Z,24.39
2017-07-18T10:29:21.726Z,24.55
2017-07-18T10:30:23.598Z,24.49
2017-07-18T10:31:25.491Z,24.46
2017-07-18T10:32:39.646Z,24.35
2017-07-18T10:33:41.523Z,24.32
2017-07-18T10:34:43.434Z,24.25
2017-07-18T10:35:45.311Z,24.37
2017-07-18T10:36:47.147Z,24.42
2017-07-18T10:37:48.961Z,24.43
2017-07-18T10:38:50.840Z,24.55
2017-07-18T10:39:52.740Z,24.71
2017-07-18T10:40:54.642Z,24.71
2017-07-18T10:42:08.818Z,24.95
2017-07-18T10:43:10.698Z,25.02
2017-07-18T10:44:12.598Z,25.06
2017-07-18T10:45:14.495Z,25.14
2017-07-18T10:46:16.335Z,25.24
2017-07-18T10:47:18.151Z,25.32
2017-07-18T10:48:20.047Z,25.20
2017-07-18T10:49:21.928Z,25.14
2017-07-18T10:50:23.827Z,25.05
2017-07-18T10:51:37.979Z,25.03
2017-07-18T10:52:39.855Z,25.09
2017-07-18T10:53:41.758Z,25.25
2017-07-18T10:54:43.649Z,25.35
2017-07-18T10:55:45.471Z,25.32
2017-07-18T10:56:47.308Z,25.43
2017-07-18T10:57:49.182Z,25.36
2017-07-18T10:58:51.063Z,25.40
2017-07-18T10:59:52.967Z,25.42
2017-07-18T11:01:07.144Z,25.38
2017-07-18T11:02:09.041Z,25.36
2017-07-18T11:03:10.918Z,25.45
2017-07-18T11:04:12.793Z,25.36
2017-07-18T11:05:14.616Z,25.24
2017-07-18T11:06:16.448Z,25.17
2017-07-18T11:07:18.329Z,25.18
2017-07-18T11:08:20.222Z,25.25
2017-07-18T11:09:22.098Z,25.09
2017-07-18T11:10:36.254Z,25.14
2017-07-18T11:11:38.157Z,25.27
2017-07-18T11:12:40.039Z,25.30
2017-07-18T11:13:41.937Z,25.39
2017-07-18T11:14:43.778Z,25.46
2017-07-18T11:15:45.589Z,25.64
2017-07-18T11:16:47.465Z,25.73
2017-07-18T11:17:49.344Z,25.91
2017-07-18T11:18:51.248Z,26.07
2017-07-18T11:20:05.422Z,26.28
2017-07-18T11:21:07.298Z,26.30
2017-07-18T11:22:09.173Z,26.50
2017-07-18T11:23:11.056Z,26.60
2017-07-18T11:24:12.890Z,26.72
2017-07-18T11:25:14.708Z,26.81
2017-07-18T11:26:16.591Z,26.99
2017-07-18T11:27:18.467Z,27.21
2017-07-18T11:28:20.341Z,27.24
2017-07-18T11:29:34.500Z,27.41
2017-07-18T11:30:36.400Z,27.54
2017-07-18T11:31:38.281Z,27.49
2017-07-18T11:32:40.182Z,27.49
2017-07-18T11:33:42.023Z,27.28
2017-07-18T11:34:43.837Z,27.18
2017-07-18T11:35:45.718Z,27.06
2017-07-18T11:36:47.592Z,27.02
2017-07-18T11:37:49.474Z,27.06
2017-07-18T11:39:03.651Z,26.97
2017-07-18T11:40:05.525Z,27.03
2017-07-18T11:41:07.400Z,27.02
2017-07-18T11:42:09.283Z,27.02
2017-07-18T11:43:11.127Z,27.04
2017-07-18T11:44:12.964Z,27.25
2017-07-18T11:45:14.842Z,27.37
2017-07-18T11:46:16.748Z,27.57
2017-07-18T11:47:18.646Z,27.75
2017-07-18T11:48:32.806Z,27.97
2017-07-18T11:49:34.681Z,28.06
2017-07-18T11:50:36.562Z,28.12
2017-07-18T11:51:38.462Z,28.29
2017-07-18T11:52:40.278Z,28.22
2017-07-18T11:53:42.098Z,28.25
2017-07-18T11:54:43.971Z,28.36
2017-07-18T11:55:45.851Z,28.40
2017-07-18T11:56:47.728Z,28.61
2017-07-18T11:58:01.890Z,28.61
2017-07-18T11:59:03.794Z,28.70
2017-07-18T12:00:05.694Z,28.80
2017-07-18T12:01:07.572Z,28.76
2017-07-18T12:02:09.389Z,28.55
2017-07-18T12:03:11.212Z,28.41
2017-07-18T12:04:13.087Z,28.27
2017-07-18T12:05:14.986Z,28.15
2017-07-18T12:06:16.864Z,27.96
2017-07-18T12:07:31.019Z,27.75
2017-07-18T12:08:32.903Z,27.79
2017-07-18T12:09:34.804Z,27.77
2017-07-18T12:10:36.679Z,27.93
2017-07-18T12:11:38.524Z,27.79
2017-07-18T12:12:40.360Z,27.84
2017-07-18T12:13:42.239Z,27.74
2017-07-18T12:14:44.114Z,27.67
2017-07-18T12:15:45.989Z,27.72
2017-07-18T12:17:00.149Z,27.72
2017-07-18T12:18:02.054Z,27.77
2017-07-18T12:19:03.956Z,27.84
2017-07-18T12:20:05.829Z,27.87
2017-07-18T12:21:07.650Z,27.79
2017-07-18T12:22:09.487Z,27.84
2017-07-18T12:23:11.372Z,27.79
2017-07-18T12:24:13.279Z,27.70
2017-07-18T12:25:15.158Z,27.60
2017-07-18T12:26:29.335Z,27.36
2017-07-18T12:27:31.235Z,27.40
2017-07-18T12:28:33.117Z,27.49
2017-07-18T12:29:34.992Z,27.60
2017-07-18T12:30:36.838Z,27.69
2017-07-18T12:31:38.657Z,27.85
2017-07-18T12:32:40.537Z,27.92
2017-07-18T12:33:42.419Z,28.00
2017-07-18T12:34:44.301Z,27.94
2017-07-18T12:35:58.484Z,28.03
2017-07-18T12:37:00.367Z,28.12
2017-07-18T12:38:02.268Z,28.17
2017-07-18T12:39:04.142Z,28.37
2017-07-18T12:40:05.966Z,28.40
2017-07-18T12:41:07.809Z,28.33
2017-07-18T12:42:09.711Z,28.39
2017-07-18T12:43:11.612Z,28.41
2017-07-18T12:44:13.492Z,28.44
2017-07-18T12:45:27.651Z,28.39
2017-07-18T12:46:29.528Z,28.48
2017-07-18T12:47:31.408Z,28.64
2017-07-18T12:48:33.310Z,28.48
2017-07-18T12:49:35.134Z,28.59
2017-07-18T12:50:36.966Z,28.68
2017-07-18T12:51:38.842Z,28.62
2017-07-18T12:52:40.720Z,28.55
2017-07-18T12:53:42.607Z,28.51
2017-07-18T12:54:56.791Z,28.55
2017-07-18T12:55:58.697Z,28.59
2017-07-18T12:57:00.571Z,28.61
2017-07-18T12:58:02.448Z,28.73
2017-07-18T12:59:04.268Z,28.66
2017-07-18T13:00:06.087Z,28.49
2017-07-18T13:01:07.990Z,28.34
2017-07-18T13:02:09.865Z,28.25
2017-07-18T13:03:11.752Z,28.04
2017-07-18T13:04:25.935Z,28.12
2017-07-18T13:05:27.811Z,28.02
2017-07-18T13:06:29.693Z,28.12
2017-07-18T13:07:31.589Z,28.17
2017-07-18T13:08:33.408Z,28.07
2017-07-18T13:09:35.224Z,28.07
2017-07-18T13:10:37.129Z,28.06
2017-07-18T13:11:39.030Z,28.14
2017-07-18T13:12:40.914Z,28.27
2017-07-18T13:13:55.094Z,28.09
2017-07-18T13:14:56.967Z,28.00
2017-07-18T13:15:58.847Z,27.84
2017-07-18T13:17:00.722Z,27.72
2017-07-18T13:18:02.564Z,27.54
2017-07-18T13:19:04.381Z,27.55
2017-07-18T13:20:06.262Z,27.57
2017-07-18T13:21:08.145Z,27.55
2017-07-18T13:22:10.048Z,27.59
2017-07-18T13:23:24.240Z,27.44
2017-07-18T13:24:26.122Z,27.40
2017-07-18T13:25:28.023Z,27.49
2017-07-18T13:26:29.921Z,27.50
2017-07-18T13:27:31.745Z,27.67
2017-07-18T13:28:33.582Z,27.85
2017-07-18T13:29:35.465Z,28.02
2017-07-18T13:30:37.349Z,28.03
2017-07-18T13:31:39.245Z,28.04
2017-07-18T13:32:53.405Z,28.00
2017-07-18T13:33:55.300Z,27.77